FYKT/KMP METAR and TAF weather

Enter ICAO airport designator
Station Type Date Time Source
FYKT METAR 2021/05/11 23:00 UTC NOAA

FYKT 112300Z AUTO 03007KT //// // ////// 17/M01 Q1025


Station Type Date Time Source
FYKT Decoded METAR 2021/05/11 23:00 UTC NOAA

Keetmanshoop, Namibia (FYKT) 26-32S 018-07E 1100M
May 11, 2021 - 07:00 PM EDT / 2021.05.11 2300 UTC
Wind: from the NNE (030 degrees) at 8 MPH (7 KT):0
Temperature: 62 F (17 C)
Dew Point: 30 F (-1 C)
Relative Humidity: 29%
Pressure (altimeter): 30.27 in. Hg (1025 hPa)
ob: FYKT 112300Z AUTO 03007KT //// // ////// 17/M01 Q1025
cycle: 23

Station Type Date Time Source
FYKT TAF 2021/05/11 18:29 UTC NOAA

TAF FYKT 111600Z 1118/1218 04006KT CAVOK

Example: see airport list